Time;durP1;ratioP1;P1;durP2;ratioP2;P2;SDS_P1;SDS_P2;PMS_P1;PMS_P2;Temp;Humidity;BMP_temperature;BMP_pressure;BME280_temperature;BME280_humidity;BME280_pressure;Samples;Min_cycle;Max_cycle;Signal;HPM_P1;HPM_P2
2021/01/21 00:01:18;;;;;;;;;;;4.90;99.90;;;;;;5084161;28;19915;-77
2021/01/21 00:03:44;;;;;;;;;;;4.90;99.90;;;;;;5085111;28;19912;-77
2021/01/21 00:06:10;;;;;;;;;;;4.90;99.90;;;;;;5090479;28;19908;-78
2021/01/21 00:08:35;;;;;;;;;;;5.00;99.90;;;;;;5072679;28;19909;-78
2021/01/21 00:11:00;;;;;;;;;;;5.00;99.90;;;;;;5073066;28;19915;-78
2021/01/21 00:13:26;;;;;;;;;;;5.00;99.90;;;;;;5073000;28;20308;-78
2021/01/21 00:15:51;;;;;;;;;;;5.00;99.90;;;;;;5072781;28;19951;-78
2021/01/21 00:18:17;;;;;;;;;;;5.00;99.90;;;;;;5072932;28;20296;-77
2021/01/21 00:20:42;;;;;;;;;;;5.10;99.90;;;;;;5072760;28;19916;-77
2021/01/21 00:23:08;;;;;;;;;;;5.10;99.90;;;;;;5072684;28;19912;-78
2021/01/21 00:25:33;;;;;;;;;;;5.10;99.90;;;;;;5087561;28;20336;-78
2021/01/21 00:27:59;;;;;;;;;;;5.10;99.90;;;;;;5091893;28;19935;-77
2021/01/21 00:30:24;;;;;;;;;;;5.10;99.90;;;;;;5091925;28;19919;-78
2021/01/21 00:32:50;;;;;;;;;;;5.10;99.90;;;;;;5090095;28;20380;-76
2021/01/21 00:35:15;;;;;;;;;;;5.00;99.90;;;;;;5076372;28;19916;-77
2021/01/21 00:37:41;;;;;;;;;;;4.90;99.90;;;;;;5077728;28;19913;-76
2021/01/21 00:40:07;;;;;;;;;;;4.80;99.90;;;;;;5072532;28;20425;-77
2021/01/21 00:42:32;;;;;;;;;;;4.60;99.90;;;;;;5072617;28;19912;-77
2021/01/21 00:44:58;;;;;;;;;;;4.60;99.90;;;;;;5085571;28;19965;-77
2021/01/21 00:47:24;;;;;;;;;;;4.50;99.90;;;;;;5091677;28;19990;-76
2021/01/21 00:49:49;;;;;;;;;;;4.60;99.90;;;;;;5078907;28;19958;-76
2021/01/21 00:52:14;;;;;;;;;;;4.50;99.90;;;;;;5072092;28;19962;-76
2021/01/21 00:54:40;;;;;;;;;;;4.50;99.90;;;;;;5072201;28;19909;-77
2021/01/21 00:57:05;;;;;;;;;;;4.60;99.90;;;;;;5090753;28;19950;-76
2021/01/21 00:59:31;;;;;;;;;;;4.60;99.90;;;;;;5091969;28;20334;-76
2021/01/21 01:01:56;;;;;;;;;;;4.60;99.90;;;;;;5092966;28;20337;-77
2021/01/21 01:04:22;;;;;;;;;;;4.50;99.90;;;;;;5085880;28;19912;-77
2021/01/21 01:06:47;;;;;;;;;;;4.50;99.90;;;;;;5073144;28;19916;-77
2021/01/21 01:09:13;;;;;;;;;;;4.40;99.90;;;;;;5072013;28;20261;-76
2021/01/21 01:11:38;;;;;;;;;;;4.30;99.90;;;;;;5072260;28;20043;-77
2021/01/21 01:14:04;;;;;;;;;;;4.20;99.90;;;;;;5073344;28;19908;-76
2021/01/21 01:16:29;;;;;;;;;;;4.20;99.90;;;;;;5072588;28;19909;-77
2021/01/21 01:18:54;;;;;;;;;;;4.10;99.90;;;;;;5081939;28;20350;-77
2021/01/21 01:21:20;;;;;;;;;;;4.00;99.90;;;;;;5091281;28;19961;-76
2021/01/21 01:23:45;;;;;;;;;;;4.00;99.90;;;;;;5091244;28;19912;-77
2021/01/21 01:26:11;;;;;;;;;;;4.00;99.90;;;;;;5091043;28;19916;-77
2021/01/21 01:28:37;;;;;;;;;;;4.20;99.90;;;;;;5091312;28;20019;-78
2021/01/21 01:31:03;;;;;;;;;;;4.50;99.90;;;;;;5091306;28;19960;-77
2021/01/21 01:33:28;;;;;;;;;;;4.80;99.90;;;;;;5082172;28;19931;-76
2021/01/21 01:35:53;;;;;;;;;;;5.00;99.90;;;;;;5083196;28;19908;-76
2021/01/21 01:38:19;;;;;;;;;;;5.20;99.90;;;;;;5071217;28;19909;-76
2021/01/21 01:40:44;;;;;;;;;;;5.40;99.90;;;;;;5071835;28;19912;-76
2021/01/21 01:43:10;;;;;;;;;;;5.40;99.90;;;;;;5071792;28;20430;-76
2021/01/21 01:45:35;;;;;;;;;;;5.50;99.90;;;;;;5078598;28;19908;-76
2021/01/21 01:48:02;;;;;;;;;;;5.60;99.90;;;;;;5090823;28;19909;-76
2021/01/21 01:50:28;;;;;;;;;;;5.60;99.90;;;;;;5090734;28;19912;-77
2021/01/21 01:52:54;;;;;;;;;;;5.50;99.90;;;;;;5089623;28;19961;-76
2021/01/21 01:55:20;;;;;;;;;;;5.60;99.90;;;;;;5071595;28;19909;-76
2021/01/21 01:57:51;;;;;;;;;;;5.60;99.90;;;;;;5071541;28;19999;-78
2021/01/21 02:00:16;;;;;;;;;;;5.60;99.90;;;;;;5084848;28;19994;-77
2021/01/21 02:02:42;;;;;;;;;;;5.60;99.90;;;;;;5090150;28;20341;-76
2021/01/21 02:05:07;;;;;;;;;;;5.70;99.90;;;;;;5074379;28;19920;-77
2021/01/21 02:07:33;;;;;;;;;;;5.70;99.90;;;;;;5077348;28;19914;-77
2021/01/21 02:10:00;;;;;;;;;;;5.70;99.90;;;;;;5071511;28;19908;-76
2021/01/21 02:12:36;;;;;;;;;;;5.70;99.90;;;;;;5071478;28;20295;-77
2021/01/21 02:15:01;;;;;;;;;;;5.70;99.90;;;;;;5084965;28;19947;-77
2021/01/21 02:17:36;;;;;;;;;;;5.80;99.90;;;;;;5090317;28;19962;-77
2021/01/21 02:20:20;;;;;;;;;;;5.90;99.90;;;;;;5090581;28;19973;-77
2021/01/21 02:23:05;;;;;;;;;;;6.00;99.90;;;;;;5090559;28;20356;-76
2021/01/21 02:25:35;;;;;;;;;;;6.10;99.90;;;;;;5090238;28;19912;-77
2021/01/21 02:28:07;;;;;;;;;;;6.20;99.90;;;;;;5090354;28;19915;-77
2021/01/21 02:30:51;;;;;;;;;;;6.20;99.90;;;;;;5090601;28;19923;-76
2021/01/21 02:33:22;;;;;;;;;;;6.20;99.90;;;;;;5087901;28;20016;-77
2021/01/21 02:35:49;;;;;;;;;;;6.10;99.90;;;;;;5086712;28;19919;-76
2021/01/21 02:38:17;;;;;;;;;;;6.20;99.90;;;;;;5087386;28;19909;-76
2021/01/21 02:40:42;;;;;;;;;;;6.20;99.90;;;;;;5069538;28;19909;-77
2021/01/21 02:43:11;;;;;;;;;;;6.20;99.90;;;;;;5070985;28;19939;-77
2021/01/21 02:45:37;;;;;;;;;;;6.10;99.90;;;;;;5070892;28;20019;-77
2021/01/21 02:48:03;;;;;;;;;;;6.10;99.90;;;;;;5070692;28;19956;-78
2021/01/21 02:50:29;;;;;;;;;;;6.10;99.90;;;;;;5073601;28;19980;-77
2021/01/21 02:52:56;;;;;;;;;;;6.00;99.90;;;;;;5074461;28;20365;-76
2021/01/21 02:55:45;;;;;;;;;;;6.00;99.90;;;;;;5077189;28;19991;-76
2021/01/21 02:58:12;;;;;;;;;;;6.00;99.90;;;;;;5068584;28;19909;-77
2021/01/21 03:00:39;;;;;;;;;;;5.90;99.90;;;;;;5074510;28;19990;-77
2021/01/21 03:03:10;;;;;;;;;;;5.80;99.90;;;;;;5075924;28;19916;-77
2021/01/21 03:05:36;;;;;;;;;;;5.70;99.90;;;;;;5083058;28;20007;-76
2021/01/21 03:08:02;;;;;;;;;;;5.60;99.90;;;;;;5081774;28;19955;-76
2021/01/21 03:10:27;;;;;;;;;;;5.60;99.90;;;;;;5074302;28;19916;-77
2021/01/21 03:12:53;;;;;;;;;;;5.60;99.90;;;;;;5074576;28;19915;-76
2021/01/21 03:15:19;;;;;;;;;;;5.70;99.90;;;;;;5074275;28;19909;-77
2021/01/21 03:17:45;;;;;;;;;;;5.80;99.90;;;;;;5073838;28;19908;-76
2021/01/21 03:20:10;;;;;;;;;;;6.10;99.90;;;;;;5073929;28;20114;-76
2021/01/21 03:22:36;;;;;;;;;;;6.20;99.90;;;;;;5091678;28;20285;-76
2021/01/21 03:25:02;;;;;;;;;;;6.30;99.90;;;;;;5093353;28;19916;-77
2021/01/21 03:27:27;;;;;;;;;;;6.40;99.90;;;;;;5093074;28;19912;-77
2021/01/21 03:29:52;;;;;;;;;;;6.50;99.90;;;;;;5093106;28;19995;-76
2021/01/21 03:32:18;;;;;;;;;;;6.60;99.90;;;;;;5092530;28;19908;-76
2021/01/21 03:34:44;;;;;;;;;;;6.70;99.90;;;;;;5080572;28;19909;-77
2021/01/21 03:37:09;;;;;;;;;;;6.70;99.90;;;;;;5079663;28;19970;-77
2021/01/21 03:39:35;;;;;;;;;;;6.60;99.90;;;;;;5073787;28;20369;-76
2021/01/21 03:42:00;;;;;;;;;;;6.60;99.90;;;;;;5073800;28;19908;-76
2021/01/21 03:44:26;;;;;;;;;;;6.60;99.90;;;;;;5073727;28;19942;-77
2021/01/21 03:46:51;;;;;;;;;;;6.60;99.90;;;;;;5073227;28;20003;-78
2021/01/21 03:49:17;;;;;;;;;;;6.60;99.90;;;;;;5073296;28;19916;-77
2021/01/21 03:51:42;;;;;;;;;;;6.60;99.90;;;;;;5073584;28;20377;-77
2021/01/21 03:54:08;;;;;;;;;;;6.50;99.90;;;;;;5073435;28;19916;-77
2021/01/21 03:56:33;;;;;;;;;;;6.40;99.90;;;;;;5073212;28;20289;-77
2021/01/21 03:58:59;;;;;;;;;;;6.40;99.90;;;;;;5073293;28;19950;-77
2021/01/21 04:01:24;;;;;;;;;;;6.30;99.90;;;;;;5071507;28;19991;-77
2021/01/21 04:03:50;;;;;;;;;;;6.30;99.90;;;;;;5084022;28;19919;-76
2021/01/21 04:06:16;;;;;;;;;;;6.30;99.90;;;;;;5076062;28;19915;-77
2021/01/21 04:08:41;;;;;;;;;;;6.30;99.90;;;;;;5072913;28;20377;-77
2021/01/21 04:11:07;;;;;;;;;;;6.30;99.90;;;;;;5092551;28;20296;-77
2021/01/21 04:13:32;;;;;;;;;;;6.30;99.90;;;;;;5092499;28;19915;-78
2021/01/21 04:15:57;;;;;;;;;;;6.30;99.90;;;;;;5086240;28;19965;-76
2021/01/21 04:18:23;;;;;;;;;;;6.30;99.90;;;;;;5072799;28;19912;-77
2021/01/21 04:20:48;;;;;;;;;;;6.40;99.90;;;;;;5072910;28;19915;-77
2021/01/21 04:23:14;;;;;;;;;;;6.50;99.90;;;;;;5072944;28;19912;-76
2021/01/21 04:25:39;;;;;;;;;;;6.50;99.90;;;;;;5072576;28;19908;-77
2021/01/21 04:28:05;;;;;;;;;;;6.60;99.90;;;;;;5073006;28;19908;-77
2021/01/21 04:30:30;;;;;;;;;;;6.60;99.90;;;;;;5072702;28;19917;-78
2021/01/21 04:32:56;;;;;;;;;;;6.60;99.90;;;;;;5074202;28;19908;-76
2021/01/21 04:35:22;;;;;;;;;;;6.60;99.90;;;;;;5079759;28;19968;-77
2021/01/21 04:37:47;;;;;;;;;;;6.60;99.90;;;;;;5074883;28;20005;-77
2021/01/21 04:40:13;;;;;;;;;;;6.60;99.90;;;;;;5072460;28;20309;-77
2021/01/21 04:42:39;;;;;;;;;;;6.70;99.90;;;;;;5082346;28;19912;-78
2021/01/21 04:45:05;;;;;;;;;;;6.70;99.90;;;;;;5092281;28;19991;-77
2021/01/21 04:47:31;;;;;;;;;;;6.80;99.90;;;;;;5091130;28;20006;-77
2021/01/21 04:49:59;;;;;;;;;;;6.80;99.90;;;;;;5091784;28;19955;-78
2021/01/21 04:52:25;;;;;;;;;;;6.80;99.90;;;;;;5091705;28;19956;-77
2021/01/21 04:55:07;;;;;;;;;;;6.90;99.90;;;;;;5091691;28;20510;-77
2021/01/21 04:57:56;;;;;;;;;;;6.90;99.90;;;;;;5091303;28;20003;-77
2021/01/21 05:00:22;;;;;;;;;;;6.90;99.90;;;;;;5083023;28;19908;-77
2021/01/21 05:02:48;;;;;;;;;;;6.90;99.90;;;;;;5088828;28;19922;-78
2021/01/21 05:05:14;;;;;;;;;;;6.90;99.60;;;;;;5075408;28;20302;-77
2021/01/21 05:07:41;;;;;;;;;;;7.00;99.60;;;;;;5076433;28;19909;-77
2021/01/21 05:10:07;;;;;;;;;;;7.00;99.90;;;;;;5071974;28;19914;-77
2021/01/21 05:12:32;;;;;;;;;;;7.00;99.90;;;;;;5071151;28;19995;-76
2021/01/21 05:14:58;;;;;;;;;;;6.90;99.90;;;;;;5071564;28;20360;-77
2021/01/21 05:17:24;;;;;;;;;;;6.90;99.90;;;;;;5091066;28;19908;-77
2021/01/21 05:19:53;;;;;;;;;;;6.90;99.90;;;;;;5091122;28;20358;-77
2021/01/21 05:22:19;;;;;;;;;;;6.80;99.90;;;;;;5091085;28;19908;-77
2021/01/21 05:24:45;;;;;;;;;;;6.80;99.90;;;;;;5091148;28;19912;-77
2021/01/21 05:27:10;;;;;;;;;;;6.80;99.90;;;;;;5071629;28;19915;-77
2021/01/21 05:29:36;;;;;;;;;;;6.70;99.90;;;;;;5071585;28;19909;-77
2021/01/21 05:32:04;;;;;;;;;;;6.70;99.90;;;;;;5071458;28;19963;-77
2021/01/21 05:34:31;;;;;;;;;;;6.70;99.90;;;;;;5084935;28;20367;-77
2021/01/21 05:36:56;;;;;;;;;;;6.70;99.90;;;;;;5071894;28;20042;-77
2021/01/21 05:39:22;;;;;;;;;;;6.70;99.90;;;;;;5071927;28;19955;-77
2021/01/21 05:41:47;;;;;;;;;;;6.70;99.90;;;;;;5071453;28;19916;-77
2021/01/21 05:44:13;;;;;;;;;;;6.60;99.90;;;;;;5070057;28;20361;-77
2021/01/21 05:46:38;;;;;;;;;;;6.60;99.90;;;;;;5071035;28;19908;-77
2021/01/21 05:49:03;;;;;;;;;;;6.50;99.90;;;;;;5071448;28;19909;-77
2021/01/21 05:51:29;;;;;;;;;;;6.40;99.90;;;;;;5071481;28;19962;-77
2021/01/21 05:53:55;;;;;;;;;;;6.40;99.90;;;;;;5071452;28;19908;-77
2021/01/21 05:56:27;;;;;;;;;;;6.40;99.90;;;;;;5070823;28;19962;-77
2021/01/21 05:58:53;;;;;;;;;;;6.40;99.90;;;;;;5071275;28;20370;-77
2021/01/21 06:01:23;;;;;;;;;;;6.40;99.90;;;;;;5069978;28;19909;-77
2021/01/21 06:03:49;;;;;;;;;;;6.50;99.90;;;;;;5073229;28;19999;-77
2021/01/21 06:06:15;;;;;;;;;;;6.60;99.90;;;;;;5086120;28;19955;-77
2021/01/21 06:08:41;;;;;;;;;;;6.60;99.90;;;;;;5071146;28;19912;-76
2021/01/21 06:11:07;;;;;;;;;;;6.70;99.70;;;;;;5071291;28;19916;-76
2021/01/21 06:13:40;;;;;;;;;;;6.80;99.40;;;;;;5071310;28;20385;-77
2021/01/21 06:16:07;;;;;;;;;;;6.90;99.20;;;;;;5070765;28;19908;-77
2021/01/21 06:18:32;;;;;;;;;;;7.00;99.20;;;;;;5071437;28;20007;-76
2021/01/21 06:20:58;;;;;;;;;;;7.10;99.00;;;;;;5071029;28;20003;-77
2021/01/21 06:23:25;;;;;;;;;;;7.10;99.20;;;;;;5070908;28;19956;-76
2021/01/21 06:25:52;;;;;;;;;;;7.10;99.00;;;;;;5074518;28;19943;-77
2021/01/21 06:28:18;;;;;;;;;;;7.20;98.80;;;;;;5073605;28;19916;-77
2021/01/21 06:30:43;;;;;;;;;;;7.20;98.50;;;;;;5075032;28;20449;-77
2021/01/21 06:33:11;;;;;;;;;;;7.30;98.70;;;;;;5079087;28;20046;-76
2021/01/21 06:35:47;;;;;;;;;;;7.40;98.50;;;;;;5082653;28;19969;-76
2021/01/21 06:38:13;;;;;;;;;;;7.50;98.40;;;;;;5076764;28;19908;-76
2021/01/21 06:40:43;;;;;;;;;;;7.50;98.80;;;;;;5075006;28;19991;-76
2021/01/21 06:43:14;;;;;;;;;;;7.60;98.50;;;;;;5074693;28;19912;-76
2021/01/21 06:45:41;;;;;;;;;;;7.70;98.40;;;;;;5074471;28;20385;-77
2021/01/21 06:48:08;;;;;;;;;;;7.80;98.60;;;;;;5074732;28;19991;-77
2021/01/21 06:50:34;;;;;;;;;;;7.80;98.90;;;;;;5074450;28;20014;-77
2021/01/21 06:53:03;;;;;;;;;;;7.80;99.20;;;;;;5074688;28;19909;-77
2021/01/21 06:55:29;;;;;;;;;;;7.80;99.70;;;;;;5087021;28;19908;-77
2021/01/21 06:57:54;;;;;;;;;;;7.80;99.90;;;;;;5093731;28;20349;-76
2021/01/21 07:00:40;;;;;;;;;;;7.70;99.90;;;;;;5093800;28;20407;-77
2021/01/21 07:03:06;;;;;;;;;;;7.70;99.90;;;;;;5092179;28;19916;-76
2021/01/21 07:05:32;;;;;;;;;;;7.70;99.90;;;;;;5086493;28;19909;-77
2021/01/21 07:08:02;;;;;;;;;;;7.60;99.90;;;;;;5093519;28;20125;-76
2021/01/21 07:10:33;;;;;;;;;;;7.60;99.90;;;;;;5093632;28;19969;-77
2021/01/21 07:13:06;;;;;;;;;;;7.60;99.90;;;;;;5092154;28;19995;-77
2021/01/21 07:15:50;;;;;;;;;;;7.60;99.90;;;;;;5093422;28;19915;-77
2021/01/21 07:18:20;;;;;;;;;;;7.60;99.90;;;;;;5093927;28;19912;-76
2021/01/21 07:21:02;;;;;;;;;;;7.60;99.90;;;;;;5078341;28;20439;-77
2021/01/21 07:23:35;;;;;;;;;;;7.70;99.90;;;;;;5077632;28;19967;-77
2021/01/21 07:26:19;;;;;;;;;;;7.60;99.90;;;;;;5074615;28;19915;-77
2021/01/21 07:28:55;;;;;;;;;;;7.60;99.90;;;;;;5075977;28;19908;-78
2021/01/21 07:31:20;;;;;;;;;;;7.50;99.90;;;;;;5080340;28;19917;-78
2021/01/21 07:33:47;;;;;;;;;;;7.50;99.90;;;;;;5078163;28;20367;-77
2021/01/21 07:36:28;;;;;;;;;;;7.50;99.90;;;;;;5075054;28;20003;-78
2021/01/21 07:38:54;;;;;;;;;;;7.50;99.90;;;;;;5073020;28;19908;-77
2021/01/21 07:41:38;;;;;;;;;;;7.50;99.90;;;;;;5073444;28;20439;-77
2021/01/21 07:44:03;;;;;;;;;;;7.50;99.90;;;;;;5078805;28;19912;-77
2021/01/21 07:46:29;;;;;;;;;;;7.50;99.90;;;;;;5078559;28;20012;-78
2021/01/21 07:49:15;;;;;;;;;;;7.50;99.90;;;;;;5072684;28;19909;-77
2021/01/21 07:51:40;;;;;;;;;;;7.50;99.90;;;;;;5076433;28;20144;-77
2021/01/21 07:54:06;;;;;;;;;;;7.50;99.90;;;;;;5086548;28;20003;-77
2021/01/21 07:56:32;;;;;;;;;;;7.50;99.90;;;;;;5089518;28;19912;-77
2021/01/21 07:59:00;;;;;;;;;;;7.60;99.90;;;;;;5084853;28;19912;-77
2021/01/21 08:01:26;;;;;;;;;;;7.50;99.90;;;;;;5078817;28;19917;-77
2021/01/21 08:03:51;;;;;;;;;;;7.50;99.90;;;;;;5083526;28;19989;-78
2021/01/21 08:06:22;;;;;;;;;;;7.60;99.90;;;;;;5082981;28;19912;-77
2021/01/21 08:08:51;;;;;;;;;;;7.60;99.90;;;;;;5075695;28;19920;-77
2021/01/21 08:11:18;;;;;;;;;;;7.70;99.90;;;;;;5078055;28;19908;-77
2021/01/21 08:13:44;;;;;;;;;;;7.70;99.90;;;;;;5078019;28;20369;-77
2021/01/21 08:16:13;;;;;;;;;;;7.70;99.90;;;;;;5083516;28;19994;-77
2021/01/21 08:18:38;;;;;;;;;;;7.80;99.90;;;;;;5078872;28;19958;-78
2021/01/21 08:21:19;;;;;;;;;;;7.90;99.90;;;;;;5088330;28;20356;-77
2021/01/21 08:23:55;;;;;;;;;;;7.90;99.90;;;;;;5090280;28;20276;-77
2021/01/21 08:26:20;;;;;;;;;;;8.00;99.90;;;;;;5081880;28;19908;-77
2021/01/21 08:28:46;;;;;;;;;;;8.00;99.90;;;;;;5072220;28;20266;-77
2021/01/21 08:31:11;;;;;;;;;;;8.00;99.90;;;;;;5084413;28;20246;-77
2021/01/21 08:33:38;;;;;;;;;;;8.10;99.90;;;;;;5086207;28;19916;-77
2021/01/21 08:36:04;;;;;;;;;;;8.10;99.90;;;;;;5082483;28;19908;-78
2021/01/21 08:38:35;;;;;;;;;;;8.20;99.90;;;;;;5077279;28;20012;-77
2021/01/21 08:41:01;;;;;;;;;;;8.20;99.90;;;;;;5078365;28;19908;-77
2021/01/21 08:43:26;;;;;;;;;;;8.20;99.90;;;;;;5083994;28;19913;-77
2021/01/21 08:45:52;;;;;;;;;;;8.20;99.90;;;;;;5073918;28;19970;-77
2021/01/21 08:48:24;;;;;;;;;;;8.40;99.90;;;;;;5076931;28;19955;-76
2021/01/21 08:50:50;;;;;;;;;;;8.40;99.90;;;;;;5080923;28;20394;-76
2021/01/21 08:53:20;;;;;;;;;;;8.40;99.90;;;;;;5080102;28;19908;-77
2021/01/21 08:55:47;;;;;;;;;;;8.40;99.90;;;;;;5073443;28;19915;-78
2021/01/21 08:58:13;;;;;;;;;;;8.70;99.90;;;;;;5076455;28;19961;-76
2021/01/21 09:00:58;;;;;;;;;;;8.90;99.90;;;;;;5073232;28;20384;-76
2021/01/21 09:03:44;;;;;;;;;;;8.90;99.90;;;;;;5079265;28;19919;-76
2021/01/21 09:06:11;;;;;;;;;;;9.20;99.90;;;;;;5079922;28;19919;-77
2021/01/21 09:08:46;;;;;;;;;;;9.60;99.90;;;;;;5082754;28;20258;-77
2021/01/21 09:11:47;;;;;;;;;;;10.10;99.90;;;;;;5084858;28;19969;-77
2021/01/21 09:14:16;;;;;;;;;;;10.50;99.90;;;;;;5020673;28;19909;-77
2021/01/21 09:16:51;;;;;;;;;;;10.90;99.90;;;;;;5066652;28;19957;-77
2021/01/21 09:19:37;;;;;;;;;;;11.10;99.90;;;;;;5081956;28;19908;-76
2021/01/21 09:22:03;;;;;;;;;;;11.40;99.90;;;;;;5077247;28;19908;-77
2021/01/21 09:24:29;;;;;;;;;;;11.70;99.90;;;;;;5074670;28;19962;-77
2021/01/21 09:27:14;;;;;;;;;;;12.00;99.90;;;;;;5074557;28;19908;-76
2021/01/21 09:29:46;;;;;;;;;;;12.30;99.90;;;;;;5076085;28;19927;-77
2021/01/21 09:32:12;;;;;;;;;;;12.70;99.50;;;;;;5077655;28;19916;-77
2021/01/21 09:34:38;;;;;;;;;;;12.90;99.20;;;;;;5079374;28;19927;-76
2021/01/21 09:37:03;;;;;;;;;;;12.90;98.90;;;;;;5079101;28;19915;-76
2021/01/21 09:39:28;;;;;;;;;;;12.40;99.10;;;;;;5077954;28;19912;-76
2021/01/21 09:41:54;;;;;;;;;;;11.80;99.70;;;;;;5075167;28;19977;-76
2021/01/21 09:44:19;;;;;;;;;;;11.40;99.90;;;;;;5081687;28;19920;-76
2021/01/21 09:46:45;;;;;;;;;;;11.40;99.90;;;;;;5079011;28;20384;-76
2021/01/21 09:49:10;;;;;;;;;;;11.60;99.90;;;;;;5081969;28;19909;-76
2021/01/21 09:51:36;;;;;;;;;;;11.90;99.90;;;;;;5071302;28;19909;-78
2021/01/21 09:54:02;;;;;;;;;;;12.20;99.90;;;;;;5075376;28;20000;-76
2021/01/21 09:56:27;;;;;;;;;;;12.60;99.70;;;;;;5076335;28;19969;-76
2021/01/21 09:58:53;;;;;;;;;;;13.00;99.30;;;;;;5075132;28;19986;-76
2021/01/21 10:01:18;;;;;;;;;;;12.80;99.00;;;;;;5080143;28;19915;-77
2021/01/21 10:03:44;;;;;;;;;;;12.60;99.20;;;;;;5085770;28;19912;-76
2021/01/21 10:06:09;;;;;;;;;;;12.50;99.60;;;;;;5078361;28;19999;-76
2021/01/21 10:08:35;;;;;;;;;;;12.60;99.60;;;;;;5079650;28;20285;-76
2021/01/21 10:11:00;;;;;;;;;;;12.80;99.30;;;;;;5073809;28;19908;-76
2021/01/21 10:13:25;;;;;;;;;;;12.80;99.10;;;;;;5089580;28;19916;-76
2021/01/21 10:15:51;;;;;;;;;;;12.90;99.40;;;;;;5076216;28;19916;-75
2021/01/21 10:18:16;;;;;;;;;;;13.00;98.90;;;;;;5079366;28;20351;-77
2021/01/21 10:20:42;;;;;;;;;;;12.60;99.20;;;;;;5079739;28;19909;-76
2021/01/21 10:23:07;;;;;;;;;;;12.40;99.50;;;;;;5072874;28;19972;-76
2021/01/21 10:25:33;;;;;;;;;;;12.40;99.90;;;;;;5080745;28;19915;-76
2021/01/21 10:27:58;;;;;;;;;;;12.50;99.40;;;;;;5081072;28;19908;-76
2021/01/21 10:30:24;;;;;;;;;;;12.60;99.30;;;;;;5079615;28;19913;-76
2021/01/21 10:32:49;;;;;;;;;;;12.60;99.20;;;;;;5074686;28;19916;-74
2021/01/21 10:35:15;;;;;;;;;;;12.40;99.50;;;;;;5080849;28;19914;-76
2021/01/21 10:37:40;;;;;;;;;;;12.00;99.80;;;;;;5082983;28;19908;-75
2021/01/21 10:40:07;;;;;;;;;;;11.80;99.90;;;;;;5070329;28;19956;-75
2021/01/21 10:42:32;;;;;;;;;;;11.70;99.90;;;;;;5078794;28;19912;-75
2021/01/21 10:44:58;;;;;;;;;;;11.60;99.90;;;;;;5076159;28;20440;-75
2021/01/21 10:47:23;;;;;;;;;;;11.60;99.90;;;;;;5069507;28;19961;-75
2021/01/21 10:49:49;;;;;;;;;;;11.70;99.90;;;;;;5078921;28;19909;-77
2021/01/21 10:52:14;;;;;;;;;;;11.60;99.90;;;;;;5076301;28;19916;-75
2021/01/21 10:54:40;;;;;;;;;;;11.70;99.90;;;;;;5072603;28;20296;-75
2021/01/21 10:57:05;;;;;;;;;;;11.60;99.90;;;;;;5074544;28;19963;-75
2021/01/21 10:59:30;;;;;;;;;;;11.40;99.90;;;;;;5071289;28;19909;-75
2021/01/21 11:01:56;;;;;;;;;;;11.40;99.90;;;;;;5078249;28;20316;-75
2021/01/21 11:04:23;;;;;;;;;;;11.30;99.90;;;;;;5080523;28;19912;-75
2021/01/21 11:06:49;;;;;;;;;;;11.20;99.90;;;;;;5069590;28;20010;-75
2021/01/21 11:09:14;;;;;;;;;;;11.20;99.90;;;;;;5069966;28;19967;-75
2021/01/21 11:11:40;;;;;;;;;;;11.10;99.90;;;;;;5075280;28;19983;-76
2021/01/21 11:14:05;;;;;;;;;;;11.10;99.90;;;;;;5076340;28;19999;-75
2021/01/21 11:16:31;;;;;;;;;;;11.00;99.90;;;;;;5077778;28;20418;-75
2021/01/21 11:18:56;;;;;;;;;;;11.00;99.90;;;;;;5077832;28;19908;-77
2021/01/21 11:21:22;;;;;;;;;;;11.00;99.90;;;;;;5086997;28;19969;-75
2021/01/21 11:23:47;;;;;;;;;;;11.00;99.90;;;;;;5075756;28;20043;-74
2021/01/21 11:26:13;;;;;;;;;;;10.90;99.90;;;;;;5086059;28;19908;-74
2021/01/21 11:28:38;;;;;;;;;;;10.90;99.90;;;;;;5084896;28;20320;-74
2021/01/21 11:31:04;;;;;;;;;;;10.90;99.90;;;;;;5081092;28;20400;-74
2021/01/21 11:33:29;;;;;;;;;;;10.90;99.90;;;;;;5074222;28;19930;-74
2021/01/21 11:35:55;;;;;;;;;;;10.90;99.90;;;;;;5087189;28;20350;-74
2021/01/21 11:38:20;;;;;;;;;;;10.90;99.90;;;;;;5076007;28;19909;-75
2021/01/21 11:40:46;;;;;;;;;;;10.90;99.90;;;;;;5079634;28;20516;-74
2021/01/21 11:43:11;;;;;;;;;;;11.00;99.90;;;;;;5075394;28;19923;-74
2021/01/21 11:45:37;;;;;;;;;;;11.10;99.90;;;;;;5076963;28;20590;-74
2021/01/21 11:48:04;;;;;;;;;;;11.20;99.90;;;;;;5085799;28;19908;-75
2021/01/21 11:50:29;;;;;;;;;;;11.20;99.90;;;;;;5083640;28;19908;-74
2021/01/21 11:52:55;;;;;;;;;;;11.20;99.90;;;;;;5076375;28;19915;-74
2021/01/21 11:55:21;;;;;;;;;;;11.20;99.90;;;;;;5076563;28;20388;-75
2021/01/21 11:57:47;;;;;;;;;;;11.30;99.90;;;;;;5085625;28;19916;-74
2021/01/21 12:00:13;;;;;;;;;;;11.30;99.90;;;;;;5074609;28;19909;-74
2021/01/21 12:02:41;;;;;;;;;;;11.30;99.90;;;;;;5081996;28;19908;-76
2021/01/21 12:05:07;;;;;;;;;;;11.30;99.90;;;;;;5078875;28;19922;-75
2021/01/21 12:07:33;;;;;;;;;;;11.30;99.90;;;;;;5084603;28;19916;-74
2021/01/21 12:09:58;;;;;;;;;;;11.30;99.90;;;;;;5074149;28;19909;-74
2021/01/21 12:12:24;;;;;;;;;;;11.20;99.90;;;;;;5082221;28;19917;-74
2021/01/21 12:14:49;;;;;;;;;;;11.10;99.90;;;;;;5080584;28;19915;-75
2021/01/21 12:17:15;;;;;;;;;;;11.10;99.90;;;;;;5077492;28;19915;-74
2021/01/21 12:19:40;;;;;;;;;;;11.10;99.90;;;;;;5078119;28;19934;-74
2021/01/21 12:22:06;;;;;;;;;;;11.10;99.90;;;;;;5072497;28;19931;-74
2021/01/21 12:24:31;;;;;;;;;;;11.10;99.90;;;;;;5072753;28;19912;-74
2021/01/21 12:26:57;;;;;;;;;;;11.00;99.90;;;;;;5072740;28;19919;-74
2021/01/21 12:29:22;;;;;;;;;;;10.90;99.90;;;;;;5072825;28;19991;-74
2021/01/21 12:31:48;;;;;;;;;;;10.80;99.90;;;;;;5072962;28;19920;-74
2021/01/21 12:34:13;;;;;;;;;;;10.80;99.90;;;;;;5086312;28;20277;-75
2021/01/21 12:36:39;;;;;;;;;;;10.70;99.90;;;;;;5078021;28;20377;-74
2021/01/21 12:39:04;;;;;;;;;;;10.70;99.90;;;;;;5074799;28;20034;-74
2021/01/21 12:41:30;;;;;;;;;;;10.60;99.90;;;;;;5072800;28;19935;-75
2021/01/21 12:43:55;;;;;;;;;;;10.60;99.90;;;;;;5076546;28;19919;-74
2021/01/21 12:46:21;;;;;;;;;;;10.60;99.90;;;;;;5091652;28;19908;-74
2021/01/21 12:48:47;;;;;;;;;;;10.60;99.90;;;;;;5089799;28;19908;-74
2021/01/21 12:51:13;;;;;;;;;;;10.60;99.90;;;;;;5088466;28;19912;-76
2021/01/21 12:53:39;;;;;;;;;;;10.50;99.90;;;;;;5073570;28;20248;-74
2021/01/21 12:56:04;;;;;;;;;;;10.50;99.90;;;;;;5086895;28;19915;-77
2021/01/21 12:58:30;;;;;;;;;;;10.50;99.90;;;;;;5076985;28;19955;-74
2021/01/21 13:00:55;;;;;;;;;;;10.50;99.90;;;;;;5085460;28;19994;-74
2021/01/21 13:03:21;;;;;;;;;;;10.50;99.90;;;;;;5072809;28;19912;-74
2021/01/21 13:05:47;;;;;;;;;;;10.50;99.90;;;;;;5082233;28;19930;-74
2021/01/21 13:08:12;;;;;;;;;;;10.50;99.90;;;;;;5076439;28;19913;-75
2021/01/21 13:10:38;;;;;;;;;;;10.60;99.90;;;;;;5082328;28;19909;-74
2021/01/21 13:13:03;;;;;;;;;;;10.60;99.90;;;;;;5078305;28;19946;-75
2021/01/21 13:15:29;;;;;;;;;;;10.60;99.90;;;;;;5069620;28;19908;-74
2021/01/21 13:17:54;;;;;;;;;;;10.60;99.90;;;;;;5076726;28;20000;-76
2021/01/21 13:20:20;;;;;;;;;;;10.60;99.90;;;;;;5078174;28;19912;-74
2021/01/21 13:22:45;;;;;;;;;;;10.50;99.90;;;;;;5078769;28;20368;-74
2021/01/21 13:25:11;;;;;;;;;;;10.60;99.90;;;;;;5079435;28;19916;-76
2021/01/21 13:27:37;;;;;;;;;;;10.60;99.90;;;;;;5077695;28;20281;-74
2021/01/21 13:30:03;;;;;;;;;;;10.60;99.90;;;;;;5071497;28;20273;-74
2021/01/21 13:32:28;;;;;;;;;;;10.60;99.90;;;;;;5073621;28;20246;-74
2021/01/21 13:34:54;;;;;;;;;;;10.60;99.90;;;;;;5077435;28;19912;-74
2021/01/21 13:37:19;;;;;;;;;;;10.60;99.90;;;;;;5076909;28;19915;-76
2021/01/21 13:39:45;;;;;;;;;;;10.60;99.90;;;;;;5071748;28;19932;-74
2021/01/21 13:42:10;;;;;;;;;;;10.60;99.90;;;;;;5071796;28;20292;-74
2021/01/21 13:44:36;;;;;;;;;;;10.60;99.90;;;;;;5071596;28;19912;-74
2021/01/21 13:47:02;;;;;;;;;;;10.60;99.90;;;;;;5071099;28;19934;-76
2021/01/21 13:49:28;;;;;;;;;;;10.60;99.90;;;;;;5071980;28;20298;-75
2021/01/21 13:51:53;;;;;;;;;;;10.60;99.90;;;;;;5072126;28;19909;-74
2021/01/21 13:54:19;;;;;;;;;;;10.60;99.90;;;;;;5070596;28;20277;-74
2021/01/21 13:56:44;;;;;;;;;;;10.70;99.90;;;;;;5073657;28;19928;-76
2021/01/21 13:59:10;;;;;;;;;;;10.70;99.90;;;;;;5074142;28;19909;-74
2021/01/21 14:01:37;;;;;;;;;;;10.70;99.90;;;;;;5074881;28;19916;-75
2021/01/21 14:04:06;;;;;;;;;;;10.70;99.90;;;;;;5077638;28;20372;-74
2021/01/21 14:06:31;;;;;;;;;;;10.60;99.90;;;;;;5073040;28;20025;-74
2021/01/21 14:09:00;;;;;;;;;;;10.50;99.90;;;;;;5071280;28;20099;-75
2021/01/21 14:11:26;;;;;;;;;;;10.50;99.90;;;;;;5083558;28;19908;-74
2021/01/21 14:13:51;;;;;;;;;;;10.50;99.90;;;;;;5077279;28;19916;-74
2021/01/21 14:16:17;;;;;;;;;;;10.50;99.90;;;;;;5079935;28;19909;-74
2021/01/21 14:18:42;;;;;;;;;;;10.50;99.90;;;;;;5080373;28;20362;-76
2021/01/21 14:21:08;;;;;;;;;;;10.40;99.90;;;;;;5087844;28;19916;-77
2021/01/21 14:23:33;;;;;;;;;;;10.30;99.90;;;;;;5079209;28;19935;-74
2021/01/21 14:25:58;;;;;;;;;;;10.20;99.90;;;;;;5081598;28;19909;-75